Time;durP1;ratioP1;P1;durP2;ratioP2;P2;SDS_P1;SDS_P2;PMS_P1;PMS_P2;Temp;Humidity;BMP_temperature;BMP_pressure;BME280_temperature;BME280_humidity;BME280_pressure;Samples;Min_cycle;Max_cycle;Signal;HPM_P1;HPM_P2
2022/11/14 00:00:23;;;;;;;11.43;10.02;;;17.00;99.90;;;;;;4178721;28;20627;-73
2022/11/14 00:02:25;;;;;;;11.30;9.70;;;17.00;99.90;;;;;;4180044;28;20750;-73
2022/11/14 00:04:27;;;;;;;11.75;9.77;;;17.00;99.90;;;;;;4180300;28;20215;-73
2022/11/14 00:06:30;;;;;;;12.60;10.35;;;17.00;99.90;;;;;;4180140;28;20778;-73
2022/11/14 00:08:32;;;;;;;11.15;9.90;;;17.00;99.90;;;;;;4180134;28;20212;-73
2022/11/14 00:10:36;;;;;;;10.93;9.45;;;17.00;99.90;;;;;;4180022;28;20590;-73
2022/11/14 00:12:38;;;;;;;12.40;9.85;;;17.00;99.90;;;;;;4156329;28;20221;-73
2022/11/14 00:14:41;;;;;;;12.32;10.02;;;17.00;99.90;;;;;;4147363;28;20272;-73
2022/11/14 00:16:43;;;;;;;12.38;10.15;;;17.00;99.90;;;;;;4152150;28;20307;-73
2022/11/14 00:18:45;;;;;;;11.23;10.02;;;17.00;99.90;;;;;;4163327;28;20225;-73
2022/11/14 00:20:48;;;;;;;10.85;9.38;;;17.00;99.90;;;;;;4163058;28;20216;-73
2022/11/14 00:22:50;;;;;;;11.45;10.07;;;17.00;99.90;;;;;;4163224;28;20673;-73
2022/11/14 00:24:52;;;;;;;11.98;10.27;;;17.00;99.90;;;;;;4163350;28;20677;-73
2022/11/14 00:26:56;;;;;;;11.10;9.73;;;17.00;99.90;;;;;;4162938;28;20232;-73
2022/11/14 00:28:59;;;;;;;11.38;10.05;;;17.00;99.90;;;;;;4156886;28;20316;-73
2022/11/14 00:31:01;;;;;;;14.43;10.60;;;17.00;99.90;;;;;;4146899;28;20232;-73
2022/11/14 00:33:03;;;;;;;12.07;10.13;;;17.00;99.90;;;;;;4147011;28;20217;-73
2022/11/14 00:35:07;;;;;;;12.75;10.73;;;17.00;99.90;;;;;;4146739;28;20793;-73
2022/11/14 00:37:11;;;;;;;13.77;10.40;;;16.90;99.90;;;;;;4147180;28;20291;-73
2022/11/14 00:39:15;;;;;;;11.02;9.82;;;16.90;99.90;;;;;;4179280;28;20251;-72
2022/11/14 00:41:17;;;;;;;13.57;10.32;;;16.90;99.90;;;;;;4179498;28;20637;-72
2022/11/14 00:43:20;;;;;;;12.82;10.32;;;17.00;99.90;;;;;;4179613;28;20269;-71
2022/11/14 00:45:23;;;;;;;12.30;10.43;;;17.00;99.90;;;;;;4149238;28;20353;-72
2022/11/14 00:47:25;;;;;;;11.70;9.90;;;16.90;99.90;;;;;;4146683;28;20287;-72
2022/11/14 00:49:27;;;;;;;12.25;10.27;;;16.90;99.90;;;;;;4161043;28;20266;-73
2022/11/14 00:51:30;;;;;;;12.57;10.00;;;16.90;99.90;;;;;;4162559;28;20270;-72
2022/11/14 00:53:32;;;;;;;11.57;10.02;;;17.00;99.90;;;;;;4162744;28;20270;-72
2022/11/14 00:55:34;;;;;;;11.68;10.25;;;16.90;99.90;;;;;;4162850;28;20406;-72
2022/11/14 00:57:36;;;;;;;12.07;10.02;;;16.90;99.90;;;;;;4161638;28;20212;-72
2022/11/14 00:59:40;;;;;;;11.43;10.13;;;16.90;99.90;;;;;;4162776;28;20328;-72
2022/11/14 01:01:42;;;;;;;11.50;10.15;;;16.90;99.90;;;;;;4162630;28;20287;-72
2022/11/14 01:03:48;;;;;;;11.48;9.93;;;16.90;99.90;;;;;;4149841;28;20698;-73
2022/11/14 01:05:51;;;;;;;13.20;10.13;;;16.90;99.90;;;;;;4146630;28;20601;-72
2022/11/14 01:07:54;;;;;;;11.43;10.05;;;16.90;99.90;;;;;;4146169;28;20298;-72
2022/11/14 01:09:56;;;;;;;13.25;10.77;;;16.90;99.90;;;;;;4160763;28;20265;-72
2022/11/14 01:11:58;;;;;;;12.88;10.48;;;16.90;99.90;;;;;;4162652;28;20224;-72
2022/11/14 01:14:01;;;;;;;11.18;9.63;;;16.90;99.90;;;;;;4162938;28;20217;-72
2022/11/14 01:16:05;;;;;;;11.45;10.15;;;16.90;99.90;;;;;;4162191;28;20240;-72
2022/11/14 01:18:08;;;;;;;12.98;10.23;;;16.90;99.90;;;;;;4146079;28;20208;-73
2022/11/14 01:20:11;;;;;;;11.45;9.68;;;16.90;99.90;;;;;;4145800;28;20287;-72
2022/11/14 01:22:13;;;;;;;11.98;10.23;;;16.90;99.90;;;;;;4146428;28;20624;-73
2022/11/14 01:24:15;;;;;;;11.52;9.52;;;16.90;99.90;;;;;;4146450;28;20259;-72
2022/11/14 01:26:17;;;;;;;10.93;9.65;;;16.90;99.90;;;;;;4146439;28;20212;-73
2022/11/14 01:28:20;;;;;;;12.38;9.70;;;16.90;99.90;;;;;;4157980;28;20248;-73
2022/11/14 01:30:23;;;;;;;11.20;10.05;;;16.90;99.90;;;;;;4162344;28;20254;-73
2022/11/14 01:32:27;;;;;;;12.25;10.15;;;16.80;99.90;;;;;;4162251;28;20220;-73
2022/11/14 01:34:30;;;;;;;13.05;10.18;;;16.90;99.90;;;;;;4162135;28;20216;-73
2022/11/14 01:36:32;;;;;;;11.98;9.68;;;16.80;99.90;;;;;;4159421;28;20225;-73
2022/11/14 01:38:35;;;;;;;11.35;9.35;;;16.80;99.90;;;;;;4170226;28;20211;-73
2022/11/14 01:40:41;;;;;;;12.13;10.25;;;16.80;99.90;;;;;;4178662;28;20668;-73
2022/11/14 01:43:17;;;;;;;12.90;10.70;;;16.80;99.90;;;;;;4178469;28;20223;-73
2022/11/14 01:45:56;;;;;;;12.10;10.38;;;16.80;99.90;;;;;;4145804;28;20217;-73
2022/11/14 01:48:00;;;;;;;11.95;9.88;;;16.80;99.90;;;;;;4151627;28;20239;-73
2022/11/14 01:50:05;;;;;;;12.10;10.05;;;16.80;99.90;;;;;;4150017;28;20234;-73
2022/11/14 01:52:13;;;;;;;12.18;9.60;;;16.80;99.90;;;;;;4145596;28;20280;-73
2022/11/14 01:54:21;;;;;;;11.23;9.85;;;16.80;99.90;;;;;;4151981;28;20240;-73
2022/11/14 01:56:27;;;;;;;11.00;9.75;;;16.80;99.90;;;;;;4177336;28;20295;-73
2022/11/14 01:58:31;;;;;;;12.20;9.43;;;16.80;99.90;;;;;;4169034;28;20231;-73
2022/11/14 02:00:33;;;;;;;12.68;10.23;;;16.80;99.90;;;;;;4178497;28;20269;-73
2022/11/14 02:02:36;;;;;;;12.57;9.93;;;16.80;99.90;;;;;;4178421;28;20261;-73
2022/11/14 02:04:45;;;;;;;11.35;10.15;;;16.80;99.90;;;;;;4178316;28;20259;-73
2022/11/14 02:06:48;;;;;;;11.23;10.05;;;16.80;99.90;;;;;;4178527;28;20261;-73
2022/11/14 02:08:51;;;;;;;12.20;10.38;;;16.80;99.90;;;;;;4178334;28;20262;-73
2022/11/14 02:10:54;;;;;;;12.43;10.52;;;16.80;99.90;;;;;;4168602;28;20703;-73
2022/11/14 02:12:56;;;;;;;11.52;9.52;;;16.80;99.90;;;;;;4149140;28;20244;-73
2022/11/14 02:15:00;;;;;;;10.98;9.88;;;16.80;99.90;;;;;;4149186;28;20213;-73
2022/11/14 02:17:02;;;;;;;10.73;9.55;;;16.80;99.90;;;;;;4159687;28;20212;-73
2022/11/14 02:19:05;;;;;;;13.80;10.68;;;16.80;99.90;;;;;;4164381;28;20246;-73
2022/11/14 02:21:09;;;;;;;11.02;9.65;;;16.80;99.90;;;;;;4164361;28;20263;-73
2022/11/14 02:23:12;;;;;;;11.75;10.15;;;16.80;99.90;;;;;;4164119;28;20215;-73
2022/11/14 02:25:18;;;;;;;12.75;10.00;;;16.80;99.90;;;;;;4164186;28;20290;-73
2022/11/14 02:27:20;;;;;;;10.68;9.52;;;16.80;99.90;;;;;;4162543;28;20256;-73
2022/11/14 02:29:23;;;;;;;11.32;9.68;;;16.70;99.90;;;;;;4164193;28;20217;-73
2022/11/14 02:31:25;;;;;;;11.82;9.73;;;16.80;99.90;;;;;;4163650;28;20687;-73
2022/11/14 02:33:27;;;;;;;12.60;10.38;;;16.70;99.90;;;;;;4163653;28;20263;-73
2022/11/14 02:35:29;;;;;;;11.32;9.57;;;16.70;99.90;;;;;;4163909;28;20221;-73
2022/11/14 02:37:33;;;;;;;13.48;10.75;;;16.80;99.90;;;;;;4163296;28;20208;-73
2022/11/14 02:39:35;;;;;;;10.65;9.55;;;16.70;99.90;;;;;;4163492;28;20734;-73
2022/11/14 02:41:38;;;;;;;11.70;9.88;;;16.80;99.90;;;;;;4163703;28;20216;-73
2022/11/14 02:43:40;;;;;;;11.15;9.95;;;16.70;99.90;;;;;;4159661;28;20233;-73
2022/11/14 02:45:42;;;;;;;10.90;9.73;;;16.70;99.90;;;;;;4162010;28;20278;-73
2022/11/14 02:47:44;;;;;;;12.13;10.02;;;16.70;99.90;;;;;;4161441;28;20571;-73
2022/11/14 02:49:47;;;;;;;11.38;10.00;;;16.80;99.90;;;;;;4162428;28;20243;-73
2022/11/14 02:51:49;;;;;;;11.77;10.02;;;16.70;99.90;;;;;;4163600;28;20212;-73
2022/11/14 02:53:53;;;;;;;10.88;9.23;;;16.70;99.90;;;;;;4163564;28;20216;-73
2022/11/14 02:55:55;;;;;;;11.27;9.35;;;16.70;99.90;;;;;;4163553;28;20224;-73
2022/11/14 02:57:57;;;;;;;11.80;9.65;;;16.70;99.90;;;;;;4165884;28;20282;-73
2022/11/14 02:59:59;;;;;;;11.45;9.43;;;16.80;99.90;;;;;;4179808;28;20216;-72
2022/11/14 03:02:02;;;;;;;11.93;9.80;;;16.70;99.90;;;;;;4178512;28;20232;-72
2022/11/14 03:04:05;;;;;;;12.10;10.07;;;16.70;99.90;;;;;;4179882;28;20263;-72
2022/11/14 03:06:07;;;;;;;11.25;10.05;;;16.70;99.90;;;;;;4179843;28;20258;-73
2022/11/14 03:08:09;;;;;;;10.88;9.48;;;16.70;99.90;;;;;;4179303;28;20695;-72
2022/11/14 03:10:13;;;;;;;11.32;9.63;;;16.70;99.90;;;;;;4179515;28;20270;-72
2022/11/14 03:12:16;;;;;;;12.38;10.10;;;16.70;99.90;;;;;;4179742;28;20278;-73
2022/11/14 03:14:18;;;;;;;10.77;9.68;;;16.70;99.90;;;;;;4179790;28;20220;-72
2022/11/14 03:16:21;;;;;;;11.25;9.52;;;16.70;99.90;;;;;;4179362;28;20354;-72
2022/11/14 03:18:23;;;;;;;12.23;10.00;;;16.70;99.90;;;;;;4178523;28;20219;-72
2022/11/14 03:20:26;;;;;;;13.00;10.18;;;16.70;99.90;;;;;;4180534;28;20275;-72
2022/11/14 03:22:28;;;;;;;10.40;9.18;;;16.70;99.90;;;;;;4180727;28;20686;-73
2022/11/14 03:24:30;;;;;;;11.35;9.52;;;16.70;99.90;;;;;;4180543;28;20625;-72
2022/11/14 03:26:34;;;;;;;13.18;10.10;;;16.70;99.90;;;;;;4180729;28;20216;-72
2022/11/14 03:28:37;;;;;;;10.63;9.52;;;16.70;99.90;;;;;;4180464;28;20240;-73
2022/11/14 03:30:40;;;;;;;11.93;9.93;;;16.70;99.90;;;;;;4180862;28;20602;-72
2022/11/14 03:32:42;;;;;;;12.80;9.85;;;16.70;99.90;;;;;;4180480;28;20243;-73
2022/11/14 03:34:44;;;;;;;10.88;9.73;;;16.70;99.90;;;;;;4179307;28;20257;-72
2022/11/14 03:36:47;;;;;;;12.82;10.32;;;16.70;99.90;;;;;;4176667;28;20223;-72
2022/11/14 03:38:49;;;;;;;10.95;9.70;;;16.70;99.90;;;;;;4179977;28;20262;-73
2022/11/14 03:40:52;;;;;;;11.52;9.25;;;16.70;99.90;;;;;;4179037;28;20228;-73
2022/11/14 03:42:57;;;;;;;12.65;9.60;;;16.70;99.90;;;;;;4176631;28;20270;-72
2022/11/14 03:44:59;;;;;;;12.20;9.85;;;16.60;99.90;;;;;;4177756;28;20223;-73
2022/11/14 03:47:02;;;;;;;12.80;10.02;;;16.60;99.90;;;;;;4178871;28;20212;-72
2022/11/14 03:49:04;;;;;;;11.65;10.13;;;16.70;99.90;;;;;;4177675;28;20263;-73
2022/11/14 03:51:06;;;;;;;10.63;9.40;;;16.70;99.90;;;;;;4178653;28;20603;-72
2022/11/14 03:53:09;;;;;;;10.35;9.25;;;16.70;99.90;;;;;;4178386;28;20290;-72
2022/11/14 03:55:11;;;;;;;10.70;9.38;;;16.70;99.90;;;;;;4178912;28;20626;-73
2022/11/14 03:57:13;;;;;;;10.48;9.10;;;16.60;99.90;;;;;;4179284;28;20216;-72
2022/11/14 03:59:17;;;;;;;10.48;8.93;;;16.70;99.90;;;;;;4164623;28;20615;-72
2022/11/14 04:01:19;;;;;;;12.15;8.93;;;16.70;99.90;;;;;;4162522;28;20268;-72
2022/11/14 04:03:22;;;;;;;11.45;9.50;;;16.60;99.90;;;;;;4162345;28;20216;-72
2022/11/14 04:05:24;;;;;;;10.95;9.52;;;16.60;99.90;;;;;;4161799;28;20270;-72
2022/11/14 04:07:29;;;;;;;10.95;9.63;;;16.60;99.90;;;;;;4162113;28;20224;-72
2022/11/14 04:09:32;;;;;;;11.20;9.32;;;16.70;99.90;;;;;;4158993;28;20244;-73
2022/11/14 04:11:34;;;;;;;10.55;9.00;;;16.70;99.90;;;;;;4162269;28;20221;-72
2022/11/14 04:13:36;;;;;;;11.23;8.85;;;16.60;99.90;;;;;;4162234;28;20263;-73
2022/11/14 04:15:40;;;;;;;11.55;9.70;;;16.60;99.90;;;;;;4162421;28;20217;-72
2022/11/14 04:17:43;;;;;;;11.73;9.88;;;16.60;99.90;;;;;;4162020;28;20208;-72
2022/11/14 04:19:45;;;;;;;11.55;9.70;;;16.60;99.90;;;;;;4161754;28;20966;-72
2022/11/14 04:21:47;;;;;;;10.70;9.43;;;16.60;99.90;;;;;;4161699;28;20216;-73
2022/11/14 04:23:49;;;;;;;10.82;9.48;;;16.60;99.90;;;;;;4161936;28;20211;-72
2022/11/14 04:25:52;;;;;;;11.38;9.60;;;16.60;99.90;;;;;;4162019;28;20220;-72
2022/11/14 04:27:54;;;;;;;10.48;9.38;;;16.60;99.90;;;;;;4159499;28;20461;-72
2022/11/14 04:29:56;;;;;;;11.93;9.60;;;16.70;99.90;;;;;;4161757;28;20349;-72
2022/11/14 04:32:00;;;;;;;11.95;9.30;;;16.60;99.90;;;;;;4162318;28;20263;-72
2022/11/14 04:34:02;;;;;;;12.15;9.70;;;16.60;99.90;;;;;;4161119;28;20291;-72
2022/11/14 04:36:05;;;;;;;9.98;8.90;;;16.60;99.90;;;;;;4161956;28;20216;-72
2022/11/14 04:38:07;;;;;;;10.50;8.95;;;16.60;99.90;;;;;;4162757;28;20280;-72
2022/11/14 04:40:10;;;;;;;11.13;9.48;;;16.60;99.90;;;;;;4160432;28;20658;-72
2022/11/14 04:42:13;;;;;;;10.27;9.18;;;16.60;99.90;;;;;;4161441;28;20220;-72
2022/11/14 04:44:15;;;;;;;10.05;9.02;;;16.60;99.90;;;;;;4159679;28;20268;-72
2022/11/14 04:46:17;;;;;;;11.40;9.18;;;16.60;99.90;;;;;;4161568;28;20220;-72
2022/11/14 04:48:21;;;;;;;10.30;9.15;;;16.60;99.90;;;;;;4161560;28;20220;-72
2022/11/14 04:50:23;;;;;;;11.38;8.88;;;16.60;99.90;;;;;;4161997;28;20283;-72
2022/11/14 04:52:26;;;;;;;11.27;9.57;;;16.60;99.90;;;;;;4161290;28;20225;-73
2022/11/14 04:54:28;;;;;;;10.35;8.88;;;16.60;99.90;;;;;;4161983;28;20220;-72
2022/11/14 04:56:30;;;;;;;9.98;8.77;;;16.60;99.90;;;;;;4161571;28;20220;-72
2022/11/14 04:58:32;;;;;;;11.20;9.20;;;16.60;99.90;;;;;;4168740;28;20293;-72
2022/11/14 05:00:35;;;;;;;10.38;9.20;;;16.60;99.90;;;;;;4176813;28;20698;-73
2022/11/14 05:02:37;;;;;;;10.52;9.43;;;16.60;99.90;;;;;;4177877;28;20251;-72
2022/11/14 05:04:42;;;;;;;10.05;8.98;;;16.60;99.90;;;;;;4177649;28;20267;-72
2022/11/14 05:06:44;;;;;;;10.23;9.10;;;16.60;99.90;;;;;;4178065;28;20211;-73
2022/11/14 05:08:47;;;;;;;11.75;8.60;;;16.50;99.90;;;;;;4178065;28;20294;-72
2022/11/14 05:10:49;;;;;;;11.32;9.60;;;16.50;99.90;;;;;;4177429;28;20305;-73
2022/11/14 05:12:53;;;;;;;10.43;8.63;;;16.50;99.90;;;;;;4178234;28;20224;-73
2022/11/14 05:14:56;;;;;;;9.48;8.48;;;16.50;99.90;;;;;;4177706;28;20223;-72
2022/11/14 05:16:58;;;;;;;9.88;8.88;;;16.50;99.90;;;;;;4177515;28;20266;-73
2022/11/14 05:19:00;;;;;;;10.75;9.50;;;16.60;99.90;;;;;;4176245;28;20220;-72
2022/11/14 05:21:04;;;;;;;12.50;8.80;;;16.50;99.90;;;;;;4177510;28;20270;-72
2022/11/14 05:23:07;;;;;;;10.93;9.18;;;16.50;99.90;;;;;;4177433;28;20271;-72
2022/11/14 05:25:10;;;;;;;11.48;8.98;;;16.50;99.90;;;;;;4177466;28;20544;-72
2022/11/14 05:27:12;;;;;;;10.23;8.80;;;16.50;99.90;;;;;;4177749;28;20282;-72
2022/11/14 05:29:14;;;;;;;9.50;8.45;;;16.50;99.90;;;;;;4177467;28;20231;-72
2022/11/14 05:31:17;;;;;;;11.52;9.25;;;16.50;99.90;;;;;;4176993;28;20232;-72
2022/11/14 05:33:20;;;;;;;11.32;9.02;;;16.50;99.90;;;;;;4177129;28;20215;-72
2022/11/14 05:35:22;;;;;;;11.52;9.23;;;16.50;99.90;;;;;;4175614;28;20231;-72
2022/11/14 05:37:26;;;;;;;11.02;8.73;;;16.50;99.90;;;;;;4178449;28;20223;-72
2022/11/14 05:39:28;;;;;;;10.05;8.88;;;16.40;99.90;;;;;;4173000;28;20263;-72
2022/11/14 05:41:30;;;;;;;10.70;8.90;;;16.50;99.90;;;;;;4177891;28;20274;-72
2022/11/14 05:43:32;;;;;;;10.38;9.30;;;16.50;99.90;;;;;;4174112;28;20282;-72
2022/11/14 05:45:35;;;;;;;11.40;9.07;;;16.50;99.90;;;;;;4177361;28;20266;-72
2022/11/14 05:47:37;;;;;;;11.50;8.82;;;16.50;99.90;;;;;;4177348;28;20212;-72
2022/11/14 05:49:39;;;;;;;10.98;8.48;;;16.50;99.90;;;;;;4177214;28;20235;-72
2022/11/14 05:51:42;;;;;;;9.73;8.57;;;16.50;99.90;;;;;;4176425;28;20216;-72
2022/11/14 05:53:45;;;;;;;12.18;9.15;;;16.50;99.90;;;;;;4178737;28;20215;-72
2022/11/14 05:55:47;;;;;;;10.07;8.73;;;16.50;99.90;;;;;;4177389;28;20215;-72
2022/11/14 05:57:50;;;;;;;9.98;8.75;;;16.50;99.90;;;;;;4175217;28;20265;-72
2022/11/14 05:59:52;;;;;;;10.35;8.95;;;16.50;99.90;;;;;;4160902;28;20660;-73
2022/11/14 06:01:54;;;;;;;11.35;8.95;;;16.50;99.90;;;;;;4160588;28;20676;-72
2022/11/14 06:03:57;;;;;;;10.52;8.85;;;16.50;99.90;;;;;;4161049;28;20285;-73
2022/11/14 06:06:00;;;;;;;9.90;8.75;;;16.50;99.90;;;;;;4160507;28;20666;-72
2022/11/14 06:08:03;;;;;;;10.30;9.10;;;16.50;99.90;;;;;;4160913;28;20267;-72
2022/11/14 06:10:07;;;;;;;10.70;8.82;;;16.50;99.90;;;;;;4158801;28;20240;-72
2022/11/14 06:12:10;;;;;;;10.07;9.05;;;16.50;99.90;;;;;;4160905;28;20746;-72
2022/11/14 06:14:12;;;;;;;9.45;8.43;;;16.50;99.90;;;;;;4160700;28;20717;-73
2022/11/14 06:16:17;;;;;;;10.00;8.90;;;16.50;99.90;;;;;;4160643;28;20224;-73
2022/11/14 06:18:19;;;;;;;9.77;8.77;;;16.50;99.90;;;;;;4160849;28;20255;-73
2022/11/14 06:20:21;;;;;;;11.32;8.93;;;16.50;99.90;;;;;;4160842;28;20216;-73
2022/11/14 06:22:24;;;;;;;10.70;8.65;;;16.40;99.90;;;;;;4160528;28;20212;-72
2022/11/14 06:24:26;;;;;;;10.32;8.93;;;16.40;99.90;;;;;;4160359;28;20263;-73
2022/11/14 06:26:31;;;;;;;9.90;8.90;;;16.40;99.90;;;;;;4158908;28;20275;-72
2022/11/14 06:28:34;;;;;;;10.63;8.80;;;16.50;99.90;;;;;;4160827;28;20278;-72
2022/11/14 06:30:37;;;;;;;10.00;9.00;;;16.50;99.90;;;;;;4160445;28;20696;-72
2022/11/14 06:32:39;;;;;;;10.32;8.68;;;16.50;99.90;;;;;;4160870;28;20201;-73
2022/11/14 06:34:41;;;;;;;12.45;9.55;;;16.50;99.90;;;;;;4159838;28;20217;-72
2022/11/14 06:36:43;;;;;;;12.07;9.27;;;16.50;99.90;;;;;;4159584;28;20275;-73
2022/11/14 06:38:46;;;;;;;11.38;9.07;;;16.50;99.90;;;;;;4157371;28;20275;-73
2022/11/14 06:40:48;;;;;;;12.02;8.82;;;16.50;99.90;;;;;;4157248;28;20213;-73
2022/11/14 06:42:55;;;;;;;10.95;9.13;;;16.50;99.90;;;;;;4157391;28;20213;-72
2022/11/14 06:44:57;;;;;;;10.90;8.88;;;16.50;99.90;;;;;;4158297;28;20253;-72
2022/11/14 06:47:00;;;;;;;9.88;8.77;;;16.50;99.90;;;;;;4159769;28;20224;-72
2022/11/14 06:49:02;;;;;;;10.02;8.57;;;16.50;99.90;;;;;;4160247;28;20742;-72
2022/11/14 06:51:06;;;;;;;13.18;8.88;;;16.50;99.90;;;;;;4160562;28;20268;-72
2022/11/14 06:53:08;;;;;;;9.63;8.30;;;16.50;99.90;;;;;;4160170;28;20216;-72
2022/11/14 06:55:11;;;;;;;11.55;8.85;;;16.50;99.90;;;;;;4160356;28;20664;-72
2022/11/14 06:57:13;;;;;;;9.90;8.90;;;16.50;99.90;;;;;;4162629;28;20255;-73
2022/11/14 06:59:17;;;;;;;11.82;9.10;;;16.60;99.90;;;;;;4176634;28;20245;-72
2022/11/14 07:01:20;;;;;;;10.02;8.48;;;16.60;99.90;;;;;;4179450;28;20263;-72
2022/11/14 07:03:23;;;;;;;10.70;8.98;;;16.60;99.90;;;;;;4179593;28;20215;-72
2022/11/14 07:05:26;;;;;;;12.80;8.95;;;16.70;99.90;;;;;;4179522;28;20271;-72
2022/11/14 07:07:28;;;;;;;11.30;8.95;;;16.60;99.90;;;;;;4178630;28;20220;-72
2022/11/14 07:09:30;;;;;;;11.25;8.82;;;16.70;99.90;;;;;;4179279;28;20329;-72
2022/11/14 07:11:36;;;;;;;11.25;8.60;;;16.70;99.90;;;;;;4179653;28;20223;-72
2022/11/14 07:13:39;;;;;;;10.73;8.85;;;16.70;99.90;;;;;;4179507;28;20262;-72
2022/11/14 07:15:50;;;;;;;10.77;8.55;;;16.70;99.90;;;;;;4179983;28;20212;-72
2022/11/14 07:17:52;;;;;;;11.02;8.55;;;16.70;99.90;;;;;;4177565;28;20231;-73
2022/11/14 07:19:55;;;;;;;10.90;8.27;;;16.80;99.90;;;;;;4179879;28;20270;-73
2022/11/14 07:21:57;;;;;;;10.55;8.27;;;16.80;99.90;;;;;;4179610;28;20227;-73
2022/11/14 07:24:00;;;;;;;11.13;8.95;;;16.80;99.90;;;;;;4179619;28;20261;-72
2022/11/14 07:26:03;;;;;;;12.23;9.60;;;16.80;99.90;;;;;;4179299;28;20219;-73
2022/11/14 07:28:06;;;;;;;9.80;8.57;;;16.80;99.90;;;;;;4179446;28;20215;-73
2022/11/14 07:30:09;;;;;;;10.70;8.13;;;16.80;99.90;;;;;;4179184;28;20240;-73
2022/11/14 07:32:14;;;;;;;11.82;8.88;;;16.80;99.90;;;;;;4179404;28;20295;-73
2022/11/14 07:34:16;;;;;;;11.02;9.13;;;16.80;99.90;;;;;;4177831;28;20317;-73
2022/11/14 07:36:20;;;;;;;10.68;8.00;;;16.90;99.90;;;;;;4179325;28;20207;-73
2022/11/14 07:38:22;;;;;;;10.73;8.82;;;16.90;99.90;;;;;;4176739;28;20211;-72
2022/11/14 07:40:25;;;;;;;11.77;8.25;;;16.90;99.90;;;;;;4178277;28;20262;-72
2022/11/14 07:42:29;;;;;;;9.75;8.75;;;16.90;99.90;;;;;;4179187;28;20228;-73
2022/11/14 07:44:31;;;;;;;14.30;10.15;;;16.90;99.90;;;;;;4178291;28;20219;-73
2022/11/14 07:46:34;;;;;;;13.10;10.25;;;16.90;99.90;;;;;;4179194;28;20254;-73
2022/11/14 07:48:37;;;;;;;15.73;10.15;;;16.80;99.90;;;;;;4179938;28;20275;-73
2022/11/14 07:50:40;;;;;;;13.90;9.95;;;16.80;99.90;;;;;;4175472;28;20291;-73
2022/11/14 07:52:42;;;;;;;16.45;9.35;;;16.70;99.90;;;;;;4174626;28;20212;-73
2022/11/14 07:54:44;;;;;;;25.80;10.07;;;16.80;99.90;;;;;;4179543;28;20274;-75
2022/11/14 07:56:47;;;;;;;19.65;9.98;;;16.80;99.90;;;;;;4179425;28;20646;-73
2022/11/14 07:58:49;;;;;;;19.00;10.02;;;16.90;99.90;;;;;;4171860;28;20236;-74
2022/11/14 08:00:51;;;;;;;18.38;10.45;;;17.00;99.90;;;;;;4164983;28;20216;-76
2022/11/14 08:02:53;;;;;;;17.08;10.05;;;17.00;99.90;;;;;;4171685;28;20227;-74
2022/11/14 08:04:57;;;;;;;14.90;9.10;;;17.10;99.90;;;;;;4178648;28;20286;-76
2022/11/14 08:06:59;;;;;;;12.45;9.27;;;17.10;99.90;;;;;;4177612;28;20274;-75
2022/11/14 08:09:01;;;;;;;21.95;9.63;;;17.20;99.90;;;;;;4173875;28;20211;-74
2022/11/14 08:11:06;;;;;;;20.55;10.10;;;17.30;99.90;;;;;;4172941;28;20290;-74
2022/11/14 08:13:10;;;;;;;18.63;10.00;;;17.40;99.90;;;;;;4172398;28;20231;-74
2022/11/14 08:15:14;;;;;;;19.60;9.85;;;17.50;99.90;;;;;;4171142;28;21968;-74
2022/11/14 08:17:16;;;;;;;23.38;9.90;;;17.70;99.90;;;;;;4172860;28;20269;-74
2022/11/14 08:19:18;;;;;;;15.95;9.82;;;17.80;99.90;;;;;;4180874;28;20625;-72
2022/11/14 08:21:22;;;;;;;16.98;9.40;;;17.80;99.90;;;;;;4175903;28;20208;-72
2022/11/14 08:23:24;;;;;;;18.52;11.32;;;17.90;99.90;;;;;;4167654;28;20223;-73
2022/11/14 08:25:27;;;;;;;15.32;9.00;;;17.90;99.90;;;;;;4171134;28;20215;-72
2022/11/14 08:27:29;;;;;;;16.17;10.30;;;18.00;99.90;;;;;;4178134;28;20220;-74
2022/11/14 08:29:32;;;;;;;19.33;9.77;;;18.00;99.90;;;;;;4191146;28;20211;-74
2022/11/14 08:31:37;;;;;;;14.35;9.38;;;18.10;99.90;;;;;;4173440;28;20348;-73
2022/11/14 08:33:40;;;;;;;16.35;9.52;;;18.10;99.90;;;;;;4172642;28;20278;-73
2022/11/14 08:35:45;;;;;;;18.50;9.95;;;18.20;99.90;;;;;;4169704;28;20211;-73
2022/11/14 08:37:49;;;;;;;15.75;9.55;;;18.30;99.90;;;;;;4170867;28;20263;-73
2022/11/14 08:39:51;;;;;;;15.13;10.02;;;18.30;99.90;;;;;;4175106;28;20243;-73
2022/11/14 08:41:53;;;;;;;17.98;9.65;;;18.30;99.90;;;;;;4172088;28;20220;-72
2022/11/14 08:43:56;;;;;;;14.85;9.02;;;18.40;99.90;;;;;;4163671;28;20271;-72
2022/11/14 08:45:59;;;;;;;16.08;9.93;;;18.40;99.90;;;;;;4171493;28;20297;-72
2022/11/14 08:48:01;;;;;;;16.95;9.05;;;18.50;99.90;;;;;;4170124;28;21304;-72
2022/11/14 08:50:04;;;;;;;16.83;9.20;;;18.50;99.90;;;;;;4166825;28;20220;-72
2022/11/14 08:52:06;;;;;;;16.00;8.60;;;18.70;99.90;;;;;;4170715;28;20984;-72
2022/11/14 08:54:10;;;;;;;15.18;8.48;;;18.80;99.90;;;;;;4174482;28;20819;-72
2022/11/14 08:56:13;;;;;;;15.98;9.15;;;18.80;99.90;;;;;;4171512;28;20609;-72
2022/11/14 08:58:16;;;;;;;14.90;8.65;;;18.80;99.90;;;;;;4172550;28;21101;-71
2022/11/14 09:00:18;;;;;;;16.20;8.88;;;18.90;99.90;;;;;;4173448;28;20212;-70
2022/11/14 09:02:21;;;;;;;16.13;9.18;;;18.90;99.90;;;;;;4172447;28;20204;-74
2022/11/14 09:04:24;;;;;;;13.00;8.35;;;19.00;99.90;;;;;;4174847;28;20191;-75
2022/11/14 09:06:27;;;;;;;13.63;8.65;;;19.10;99.90;;;;;;4171594;28;20381;-72
2022/11/14 09:08:32;;;;;;;17.67;8.55;;;19.10;99.90;;;;;;4174829;28;20220;-73
2022/11/14 09:10:37;;;;;;;14.90;8.60;;;19.10;99.90;;;;;;4171133;28;20221;-75
2022/11/14 09:12:39;;;;;;;11.75;7.82;;;19.10;99.90;;;;;;4172773;28;20219;-73
2022/11/14 09:14:41;;;;;;;13.50;8.27;;;19.10;99.90;;;;;;4171592;28;20223;-74
2022/11/14 09:16:43;;;;;;;16.77;8.32;;;19.10;99.90;;;;;;4172231;28;20265;-72
2022/11/14 09:18:46;;;;;;;11.57;8.05;;;19.20;99.90;;;;;;4171673;28;20220;-72
2022/11/14 09:20:48;;;;;;;13.35;8.27;;;19.20;99.90;;;;;;4170702;28;20223;-74
2022/11/14 09:22:52;;;;;;;13.98;8.57;;;19.20;99.90;;;;;;4171993;28;20216;-76
2022/11/14 09:24:54;;;;;;;10.05;7.45;;;19.30;99.90;;;;;;4174092;28;20267;-76
2022/11/14 09:26:58;;;;;;;11.45;7.72;;;19.20;99.90;;;;;;4171762;28;20280;-73
2022/11/14 09:29:01;;;;;;;12.88;7.90;;;19.20;99.90;;;;;;4168577;28;20622;-73
2022/11/14 09:31:04;;;;;;;9.00;7.15;;;19.30;99.90;;;;;;4167895;28;20239;-73
2022/11/14 09:33:06;;;;;;;12.57;8.18;;;19.30;99.90;;;;;;4169077;28;20256;-72
2022/11/14 09:35:09;;;;;;;13.50;8.13;;;19.40;99.90;;;;;;4172506;28;20216;-73
2022/11/14 09:37:11;;;;;;;12.65;8.05;;;19.40;99.90;;;;;;4171108;28;20257;-75
2022/11/14 09:39:13;;;;;;;12.85;8.02;;;19.40;99.90;;;;;;4171972;28;20215;-75
2022/11/14 09:41:26;;;;;;;12.60;7.93;;;19.50;99.90;;;;;;4166772;28;20258;-74
2022/11/14 09:43:45;;;;;;;11.05;7.82;;;19.50;99.90;;;;;;4175369;28;20275;-78
2022/11/14 09:45:50;;;;;;;17.23;7.72;;;19.50;99.90;;;;;;4170671;28;20216;-76
2022/11/14 09:47:58;;;;;;;14.98;7.32;;;19.40;99.90;;;;;;4168475;28;20207;-75
2022/11/14 09:50:06;;;;;;;14.93;8.57;;;19.50;99.90;;;;;;4171040;28;24182;-76
2022/11/14 09:52:19;;;;;;;12.88;7.90;;;19.50;99.90;;;;;;4174002;28;20269;-76
2022/11/14 09:54:24;;;;;;;16.05;7.28;;;19.50;99.90;;;;;;4169077;28;20278;-77
2022/11/14 09:56:26;;;;;;;10.95;7.80;;;19.70;99.90;;;;;;4169585;28;20569;-74
2022/11/14 09:58:29;;;;;;;10.85;7.38;;;19.70;99.90;;;;;;4175113;28;20293;-73
2022/11/14 10:00:47;;;;;;;12.20;8.13;;;19.80;99.90;;;;;;4168533;28;20227;-73
2022/11/14 10:03:02;;;;;;;10.75;7.05;;;19.80;99.90;;;;;;4177207;28;20245;-73
2022/11/14 10:05:18;;;;;;;11.80;6.90;;;19.90;99.90;;;;;;4169227;28;20212;-70
2022/11/14 10:07:27;;;;;;;11.45;7.22;;;19.90;99.90;;;;;;4171368;28;20206;-72
2022/11/14 10:09:50;;;;;;;11.52;6.45;;;19.90;99.90;;;;;;4171320;28;20704;-75
2022/11/14 10:11:58;;;;;;;10.25;7.28;;;19.90;99.90;;;;;;4169652;28;20774;-75
2022/11/14 10:14:17;;;;;;;13.15;7.47;;;20.00;99.90;;;;;;4170743;28;20277;-77
2022/11/14 10:16:29;;;;;;;14.55;6.78;;;19.90;99.90;;;;;;4173856;28;20265;-75
2022/11/14 10:18:44;;;;;;;10.40;7.20;;;20.00;99.90;;;;;;4169277;28;20215;-73
2022/11/14 10:20:52;;;;;;;8.65;6.70;;;20.00;99.90;;;;;;4170540;28;20218;-73
2022/11/14 10:23:16;;;;;;;10.57;6.82;;;20.10;99.90;;;;;;4173189;28;20219;-73
2022/11/14 10:25:24;;;;;;;12.68;6.78;;;20.20;99.90;;;;;;4169629;28;20216;-76
2022/11/14 10:27:30;;;;;;;11.88;7.07;;;20.20;99.90;;;;;;4173874;28;20219;-74
2022/11/14 10:29:59;;;;;;;8.85;6.53;;;20.20;99.90;;;;;;4170959;28;20274;-74
2022/11/14 10:32:14;;;;;;;9.50;7.57;;;20.20;99.90;;;;;;4169714;28;20239;-75
2022/11/14 10:34:21;;;;;;;9.73;6.55;;;20.30;99.90;;;;;;4173449;28;20266;-75